sensor_id;sensor_type;location;lat;lon;timestamp;pressure;altitude;pressure_sealevel;temperature;humidity
8627;BME280;4351;51.422;6.794;2022-08-25T00:01:35;101282.09;;;23.28;100.00
8627;BME280;4351;51.422;6.794;2022-08-25T00:04:08;101291.16;;;23.20;100.00
8627;BME280;4351;51.422;6.794;2022-08-25T00:06:40;101280.31;;;23.19;100.00
8627;BME280;4351;51.422;6.794;2022-08-25T00:09:12;101283.03;;;23.11;100.00
8627;BME280;4351;51.422;6.794;2022-08-25T00:11:41;101278.69;;;23.08;100.00
8627;BME280;4351;51.422;6.794;2022-08-25T00:14:13;101286.06;;;22.99;100.00
8627;BME280;4351;51.422;6.794;2022-08-25T00:16:41;101279.16;;;22.95;100.00
8627;BME280;4351;51.422;6.794;2022-08-25T00:19:14;101271.91;;;22.85;100.00
8627;BME280;4351;51.422;6.794;2022-08-25T00:21:43;101272.03;;;22.84;100.00
8627;BME280;4351;51.422;6.794;2022-08-25T00:24:15;101281.81;;;22.78;100.00
8627;BME280;4351;51.422;6.794;2022-08-25T00:26:48;101280.09;;;22.77;100.00
8627;BME280;4351;51.422;6.794;2022-08-25T00:29:17;101271.84;;;22.77;100.00
8627;BME280;4351;51.422;6.794;2022-08-25T00:31:45;101271.50;;;22.80;100.00
8627;BME280;4351;51.422;6.794;2022-08-25T00:34:18;101277.19;;;22.79;100.00
8627;BME280;4351;51.422;6.794;2022-08-25T00:36:47;101276.31;;;22.78;100.00
8627;BME280;4351;51.422;6.794;2022-08-25T00:39:20;101275.22;;;22.71;100.00
8627;BME280;4351;51.422;6.794;2022-08-25T00:41:50;101280.09;;;22.77;100.00
8627;BME280;4351;51.422;6.794;2022-08-25T00:44:19;101286.78;;;22.74;100.00
8627;BME280;4351;51.422;6.794;2022-08-25T00:46:50;101293.16;;;22.75;100.00
8627;BME280;4351;51.422;6.794;2022-08-25T00:49:23;101299.41;;;22.85;100.00
8627;BME280;4351;51.422;6.794;2022-08-25T00:51:54;101299.91;;;22.89;100.00
8627;BME280;4351;51.422;6.794;2022-08-25T00:54:31;101301.81;;;22.89;100.00
8627;BME280;4351;51.422;6.794;2022-08-25T00:57:03;101301.59;;;22.82;100.00
8627;BME280;4351;51.422;6.794;2022-08-25T00:59:31;101308.66;;;22.84;100.00
8627;BME280;4351;51.422;6.794;2022-08-25T01:02:00;101300.03;;;22.79;100.00
8627;BME280;4351;51.422;6.794;2022-08-25T01:04:29;101302.22;;;22.76;100.00
8627;BME280;4351;51.422;6.794;2022-08-25T01:06:58;101309.41;;;22.68;100.00
8627;BME280;4351;51.422;6.794;2022-08-25T01:09:32;101300.75;;;22.63;100.00
8627;BME280;4351;51.422;6.794;2022-08-25T01:12:01;101298.09;;;22.53;100.00
8627;BME280;4351;51.422;6.794;2022-08-25T01:14:30;101298.81;;;22.55;100.00
8627;BME280;4351;51.422;6.794;2022-08-25T01:16:59;101295.97;;;22.47;100.00
8627;BME280;4351;51.422;6.794;2022-08-25T01:19:28;101295.72;;;22.40;100.00
8627;BME280;4351;51.422;6.794;2022-08-25T01:21:59;101295.38;;;22.35;100.00
8627;BME280;4351;51.422;6.794;2022-08-25T01:24:31;101290.63;;;22.27;100.00
8627;BME280;4351;51.422;6.794;2022-08-25T01:27:02;101291.28;;;22.21;100.00
8627;BME280;4351;51.422;6.794;2022-08-25T01:29:31;101288.22;;;22.05;100.00
8627;BME280;4351;51.422;6.794;2022-08-25T01:32:01;101283.59;;;22.06;100.00
8627;BME280;4351;51.422;6.794;2022-08-25T01:34:31;101295.91;;;22.02;100.00
8627;BME280;4351;51.422;6.794;2022-08-25T01:37:02;101293.38;;;21.90;100.00
8627;BME280;4351;51.422;6.794;2022-08-25T01:39:31;101290.81;;;21.89;100.00
8627;BME280;4351;51.422;6.794;2022-08-25T01:42:13;101296.75;;;21.84;100.00
8627;BME280;4351;51.422;6.794;2022-08-25T01:44:47;101295.31;;;21.80;100.00
8627;BME280;4351;51.422;6.794;2022-08-25T01:47:15;101299.38;;;21.76;100.00
8627;BME280;4351;51.422;6.794;2022-08-25T01:49:44;101292.16;;;21.75;100.00
8627;BME280;4351;51.422;6.794;2022-08-25T01:52:15;101292.47;;;21.71;100.00
8627;BME280;4351;51.422;6.794;2022-08-25T01:54:47;101297.72;;;21.65;100.00
8627;BME280;4351;51.422;6.794;2022-08-25T01:57:15;101298.34;;;21.58;100.00
8627;BME280;4351;51.422;6.794;2022-08-25T01:59:44;101298.63;;;21.55;100.00
8627;BME280;4351;51.422;6.794;2022-08-25T02:02:13;101304.72;;;21.49;100.00
8627;BME280;4351;51.422;6.794;2022-08-25T02:04:44;101292.06;;;21.38;100.00
8627;BME280;4351;51.422;6.794;2022-08-25T02:07:13;101296.53;;;21.39;100.00
8627;BME280;4351;51.422;6.794;2022-08-25T02:09:45;101302.88;;;21.40;100.00
8627;BME280;4351;51.422;6.794;2022-08-25T02:12:13;101297.00;;;21.34;100.00
8627;BME280;4351;51.422;6.794;2022-08-25T02:14:41;101290.94;;;21.31;100.00
8627;BME280;4351;51.422;6.794;2022-08-25T02:17:09;101293.28;;;21.25;100.00
8627;BME280;4351;51.422;6.794;2022-08-25T02:19:37;101297.34;;;21.21;100.00
8627;BME280;4351;51.422;6.794;2022-08-25T02:22:05;101291.88;;;21.21;100.00
8627;BME280;4351;51.422;6.794;2022-08-25T02:24:35;101293.16;;;21.17;100.00
8627;BME280;4351;51.422;6.794;2022-08-25T02:27:03;101295.50;;;21.12;100.00
8627;BME280;4351;51.422;6.794;2022-08-25T02:29:32;101291.00;;;21.11;100.00
8627;BME280;4351;51.422;6.794;2022-08-25T02:32:00;101294.47;;;21.13;100.00
8627;BME280;4351;51.422;6.794;2022-08-25T02:34:28;101292.19;;;21.08;100.00
8627;BME280;4351;51.422;6.794;2022-08-25T02:36:56;101293.03;;;21.09;100.00
8627;BME280;4351;51.422;6.794;2022-08-25T02:39:25;101292.50;;;21.05;100.00
8627;BME280;4351;51.422;6.794;2022-08-25T02:41:54;101289.47;;;20.98;100.00
8627;BME280;4351;51.422;6.794;2022-08-25T02:44:22;101287.16;;;21.04;100.00
8627;BME280;4351;51.422;6.794;2022-08-25T02:46:50;101288.16;;;21.02;100.00
8627;BME280;4351;51.422;6.794;2022-08-25T02:49:18;101285.81;;;20.98;100.00
8627;BME280;4351;51.422;6.794;2022-08-25T02:51:46;101285.75;;;20.99;100.00
8627;BME280;4351;51.422;6.794;2022-08-25T02:54:14;101291.47;;;20.96;100.00
8627;BME280;4351;51.422;6.794;2022-08-25T02:56:42;101282.09;;;20.89;100.00
8627;BME280;4351;51.422;6.794;2022-08-25T02:59:12;101288.63;;;20.88;100.00
8627;BME280;4351;51.422;6.794;2022-08-25T03:01:40;101285.88;;;20.88;100.00
8627;BME280;4351;51.422;6.794;2022-08-25T03:04:08;101281.25;;;20.88;100.00
8627;BME280;4351;51.422;6.794;2022-08-25T03:06:36;101278.66;;;20.87;100.00
8627;BME280;4351;51.422;6.794;2022-08-25T03:09:04;101278.97;;;20.84;100.00
8627;BME280;4351;51.422;6.794;2022-08-25T03:11:32;101274.47;;;20.83;100.00
8627;BME280;4351;51.422;6.794;2022-08-25T03:14:00;101264.66;;;20.80;100.00
8627;BME280;4351;51.422;6.794;2022-08-25T03:16:30;101261.09;;;20.79;100.00
8627;BME280;4351;51.422;6.794;2022-08-25T03:18:59;101258.47;;;20.78;100.00
8627;BME280;4351;51.422;6.794;2022-08-25T03:21:29;101244.06;;;20.76;100.00
8627;BME280;4351;51.422;6.794;2022-08-25T03:23:59;101251.13;;;20.78;100.00
8627;BME280;4351;51.422;6.794;2022-08-25T03:26:27;101254.47;;;20.72;100.00
8627;BME280;4351;51.422;6.794;2022-08-25T03:29:12;101246.13;;;20.64;100.00
8627;BME280;4351;51.422;6.794;2022-08-25T03:31:42;101250.00;;;20.61;100.00
8627;BME280;4351;51.422;6.794;2022-08-25T03:34:11;101248.44;;;20.59;100.00
8627;BME280;4351;51.422;6.794;2022-08-25T03:36:39;101245.41;;;20.62;100.00
8627;BME280;4351;51.422;6.794;2022-08-25T03:39:08;101245.25;;;20.63;100.00
8627;BME280;4351;51.422;6.794;2022-08-25T03:41:36;101252.75;;;20.61;100.00
8627;BME280;4351;51.422;6.794;2022-08-25T03:44:06;101251.00;;;20.60;100.00
8627;BME280;4351;51.422;6.794;2022-08-25T03:46:37;101253.63;;;20.62;100.00
8627;BME280;4351;51.422;6.794;2022-08-25T03:49:09;101247.00;;;20.64;100.00
8627;BME280;4351;51.422;6.794;2022-08-25T03:51:40;101248.97;;;20.62;100.00
8627;BME280;4351;51.422;6.794;2022-08-25T03:54:10;101249.56;;;20.56;100.00
8627;BME280;4351;51.422;6.794;2022-08-25T03:56:38;101250.44;;;20.56;100.00
8627;BME280;4351;51.422;6.794;2022-08-25T03:59:07;101247.28;;;20.51;100.00
8627;BME280;4351;51.422;6.794;2022-08-25T04:01:35;101238.34;;;20.49;100.00
8627;BME280;4351;51.422;6.794;2022-08-25T04:04:05;101242.38;;;20.45;100.00
8627;BME280;4351;51.422;6.794;2022-08-25T04:06:36;101238.09;;;20.42;100.00
8627;BME280;4351;51.422;6.794;2022-08-25T04:09:05;101234.31;;;20.43;100.00
8627;BME280;4351;51.422;6.794;2022-08-25T04:11:33;101228.88;;;20.33;100.00
8627;BME280;4351;51.422;6.794;2022-08-25T04:14:02;101223.09;;;20.37;100.00
8627;BME280;4351;51.422;6.794;2022-08-25T04:16:33;101219.63;;;20.35;100.00
8627;BME280;4351;51.422;6.794;2022-08-25T04:19:03;101215.91;;;20.36;100.00
8627;BME280;4351;51.422;6.794;2022-08-25T04:21:35;101213.59;;;20.31;100.00
8627;BME280;4351;51.422;6.794;2022-08-25T04:24:05;101212.44;;;20.33;100.00
8627;BME280;4351;51.422;6.794;2022-08-25T04:26:35;101210.69;;;20.32;100.00
8627;BME280;4351;51.422;6.794;2022-08-25T04:29:06;101205.78;;;20.36;100.00
8627;BME280;4351;51.422;6.794;2022-08-25T04:31:37;101209.94;;;20.40;100.00
8627;BME280;4351;51.422;6.794;2022-08-25T04:34:06;101213.56;;;20.41;100.00
8627;BME280;4351;51.422;6.794;2022-08-25T04:36:55;101210.09;;;20.39;100.00
8627;BME280;4351;51.422;6.794;2022-08-25T04:39:24;101210.25;;;20.37;100.00
8627;BME280;4351;51.422;6.794;2022-08-25T04:41:52;101212.13;;;20.37;100.00
8627;BME280;4351;51.422;6.794;2022-08-25T04:44:21;101208.09;;;20.41;100.00
8627;BME280;4351;51.422;6.794;2022-08-25T04:46:49;101213.56;;;20.41;100.00
8627;BME280;4351;51.422;6.794;2022-08-25T04:49:17;101226.97;;;20.44;100.00
8627;BME280;4351;51.422;6.794;2022-08-25T04:51:45;101225.09;;;20.44;100.00
8627;BME280;4351;51.422;6.794;2022-08-25T04:54:16;101216.72;;;20.46;100.00
8627;BME280;4351;51.422;6.794;2022-08-25T04:56:48;101217.72;;;20.45;100.00
8627;BME280;4351;51.422;6.794;2022-08-25T04:59:23;101210.81;;;20.41;100.00
8627;BME280;4351;51.422;6.794;2022-08-25T05:01:57;101208.94;;;20.41;100.00
8627;BME280;4351;51.422;6.794;2022-08-25T05:04:28;101206.94;;;20.43;100.00
8627;BME280;4351;51.422;6.794;2022-08-25T05:06:57;101208.09;;;20.41;100.00
8627;BME280;4351;51.422;6.794;2022-08-25T05:09:27;101204.94;;;20.36;100.00
8627;BME280;4351;51.422;6.794;2022-08-25T05:11:58;101210.38;;;20.45;100.00
8627;BME280;4351;51.422;6.794;2022-08-25T05:14:27;101210.81;;;20.41;100.00
8627;BME280;4351;51.422;6.794;2022-08-25T05:16:56;101201.28;;;20.45;100.00
8627;BME280;4351;51.422;6.794;2022-08-25T05:19:25;101200.88;;;20.40;100.00
8627;BME280;4351;51.422;6.794;2022-08-25T05:21:53;101198.56;;;20.45;100.00
8627;BME280;4351;51.422;6.794;2022-08-25T05:24:24;101207.50;;;20.47;100.00
8627;BME280;4351;51.422;6.794;2022-08-25T05:26:53;101221.91;;;20.49;100.00
8627;BME280;4351;51.422;6.794;2022-08-25T05:29:21;101216.72;;;20.46;100.00
8627;BME280;4351;51.422;6.794;2022-08-25T05:31:50;101215.44;;;20.50;100.00
8627;BME280;4351;51.422;6.794;2022-08-25T05:34:19;101213.28;;;20.44;100.00
8627;BME280;4351;51.422;6.794;2022-08-25T05:36:48;101206.78;;;20.45;100.00
8627;BME280;4351;51.422;6.794;2022-08-25T05:39:17;101206.50;;;20.48;100.00
8627;BME280;4351;51.422;6.794;2022-08-25T05:41:45;101206.19;;;20.51;100.00
8627;BME280;4351;51.422;6.794;2022-08-25T05:44:14;101197.66;;;20.54;100.00
8627;BME280;4351;51.422;6.794;2022-08-25T05:46:47;101196.19;;;20.60;100.00
8627;BME280;4351;51.422;6.794;2022-08-25T05:49:15;101194.59;;;20.67;100.00
8627;BME280;4351;51.422;6.794;2022-08-25T05:51:43;101199.03;;;20.78;100.00
8627;BME280;4351;51.422;6.794;2022-08-25T05:54:11;101204.72;;;20.95;100.00
8627;BME280;4351;51.422;6.794;2022-08-25T05:56:42;101200.97;;;21.06;100.00
8627;BME280;4351;51.422;6.794;2022-08-25T05:59:30;101208.63;;;21.12;100.00
8627;BME280;4351;51.422;6.794;2022-08-25T06:01:58;101205.00;;;21.12;100.00
8627;BME280;4351;51.422;6.794;2022-08-25T06:04:44;101201.22;;;21.13;100.00
8627;BME280;4351;51.422;6.794;2022-08-25T06:07:12;101196.69;;;21.22;100.00
8627;BME280;4351;51.422;6.794;2022-08-25T06:09:45;101196.56;;;21.23;100.00
8627;BME280;4351;51.422;6.794;2022-08-25T06:12:17;101196.25;;;21.27;100.00
8627;BME280;4351;51.422;6.794;2022-08-25T06:14:49;101187.56;;;21.31;100.00
8627;BME280;4351;51.422;6.794;2022-08-25T06:17:17;101192.13;;;21.41;100.00
8627;BME280;4351;51.422;6.794;2022-08-25T06:19:46;101199.19;;;21.43;100.00
8627;BME280;4351;51.422;6.794;2022-08-25T06:22:16;101205.63;;;21.52;100.00
8627;BME280;4351;51.422;6.794;2022-08-25T06:24:44;101211.09;;;21.52;100.00
8627;BME280;4351;51.422;6.794;2022-08-25T06:27:12;101213.72;;;21.54;100.00
8627;BME280;4351;51.422;6.794;2022-08-25T06:29:41;101213.78;;;21.62;100.00
8627;BME280;4351;51.422;6.794;2022-08-25T06:32:10;101215.91;;;21.68;100.00
8627;BME280;4351;51.422;6.794;2022-08-25T06:34:38;101218.72;;;21.77;100.00
8627;BME280;4351;51.422;6.794;2022-08-25T06:37:07;101215.09;;;21.86;100.00
8627;BME280;4351;51.422;6.794;2022-08-25T06:39:35;101216.50;;;21.90;100.00
8627;BME280;4351;51.422;6.794;2022-08-25T06:42:04;101217.59;;;21.98;100.00
8627;BME280;4351;51.422;6.794;2022-08-25T06:44:32;101215.88;;;21.97;100.00
8627;BME280;4351;51.422;6.794;2022-08-25T06:47:00;101225.91;;;22.06;100.00
8627;BME280;4351;51.422;6.794;2022-08-25T06:49:30;101231.47;;;22.14;100.00
8627;BME280;4351;51.422;6.794;2022-08-25T06:52:02;101226.03;;;22.23;100.00
8627;BME280;4351;51.422;6.794;2022-08-25T06:54:30;101228.16;;;22.29;100.00
8627;BME280;4351;51.422;6.794;2022-08-25T06:56:59;101233.03;;;22.35;100.00
8627;BME280;4351;51.422;6.794;2022-08-25T06:59:27;101230.00;;;22.47;100.00
8627;BME280;4351;51.422;6.794;2022-08-25T07:01:58;101231.09;;;22.54;100.00
8627;BME280;4351;51.422;6.794;2022-08-25T07:04:30;101230.13;;;22.63;100.00
8627;BME280;4351;51.422;6.794;2022-08-25T07:06:58;101238.03;;;22.85;100.00
8627;BME280;4351;51.422;6.794;2022-08-25T07:09:26;101232.03;;;22.90;100.00
8627;BME280;4351;51.422;6.794;2022-08-25T07:12:05;101243.97;;;23.42;100.00
8627;BME280;4351;51.422;6.794;2022-08-25T07:14:34;101229.25;;;23.16;100.00
8627;BME280;4351;51.422;6.794;2022-08-25T07:17:03;101236.06;;;23.04;100.00
8627;BME280;4351;51.422;6.794;2022-08-25T07:19:39;101240.41;;;23.15;100.00
8627;BME280;4351;51.422;6.794;2022-08-25T07:22:10;101231.78;;;23.10;100.00
8627;BME280;4351;51.422;6.794;2022-08-25T07:24:39;101236.59;;;23.07;100.00
8627;BME280;4351;51.422;6.794;2022-08-25T07:27:18;101229.91;;;23.10;100.00
8627;BME280;4351;51.422;6.794;2022-08-25T07:29:46;101231.16;;;23.24;100.00
8627;BME280;4351;51.422;6.794;2022-08-25T07:32:15;101236.16;;;23.20;100.00
8627;BME280;4351;51.422;6.794;2022-08-25T07:34:48;101237.53;;;23.25;100.00
8627;BME280;4351;51.422;6.794;2022-08-25T07:37:37;101232.19;;;23.23;100.00
8627;BME280;4351;51.422;6.794;2022-08-25T07:40:18;101226.72;;;23.31;100.00
8627;BME280;4351;51.422;6.794;2022-08-25T07:42:48;101223.94;;;23.75;100.00
8627;BME280;4351;51.422;6.794;2022-08-25T07:45:19;101220.00;;;23.77;100.00
8627;BME280;4351;51.422;6.794;2022-08-25T07:48:01;101226.72;;;23.92;100.00
8627;BME280;4351;51.422;6.794;2022-08-25T07:50:33;101221.91;;;24.10;100.00
8627;BME280;4351;51.422;6.794;2022-08-25T07:53:10;101223.13;;;24.08;100.00
8627;BME280;4351;51.422;6.794;2022-08-25T07:55:40;101209.00;;;24.19;100.00
8627;BME280;4351;51.422;6.794;2022-08-25T07:58:15;101232.44;;;24.15;100.00
8627;BME280;4351;51.422;6.794;2022-08-25T08:00:47;101227.06;;;24.05;100.00
8627;BME280;4351;51.422;6.794;2022-08-25T08:03:16;101234.31;;;24.40;100.00
8627;BME280;4351;51.422;6.794;2022-08-25T08:06:19;101226.94;;;24.23;100.00
8627;BME280;4351;51.422;6.794;2022-08-25T08:08:50;101228.81;;;24.23;100.00
8627;BME280;4351;51.422;6.794;2022-08-25T08:11:25;101233.00;;;24.92;100.00
8627;BME280;4351;51.422;6.794;2022-08-25T08:13:59;101237.50;;;25.02;100.00
8627;BME280;4351;51.422;6.794;2022-08-25T08:16:32;101214.38;;;24.95;100.00
8627;BME280;4351;51.422;6.794;2022-08-25T08:19:04;101225.41;;;25.11;100.00
8627;BME280;4351;51.422;6.794;2022-08-25T08:21:42;101224.38;;;25.04;100.00
8627;BME280;4351;51.422;6.794;2022-08-25T08:24:23;101223.19;;;25.07;100.00
8627;BME280;4351;51.422;6.794;2022-08-25T08:27:11;101225.41;;;24.95;100.00
8627;BME280;4351;51.422;6.794;2022-08-25T08:29:46;101214.25;;;24.88;100.00
8627;BME280;4351;51.422;6.794;2022-08-25T08:32:15;101207.72;;;24.80;100.00
8627;BME280;4351;51.422;6.794;2022-08-25T08:35:04;101214.69;;;25.48;100.00
8627;BME280;4351;51.422;6.794;2022-08-25T08:37:36;101208.09;;;25.26;100.00
8627;BME280;4351;51.422;6.794;2022-08-25T08:40:09;101204.59;;;25.32;100.00
8627;BME280;4351;51.422;6.794;2022-08-25T08:42:55;101197.44;;;25.14;100.00
8627;BME280;4351;51.422;6.794;2022-08-25T08:45:34;101191.53;;;25.26;100.00
8627;BME280;4351;51.422;6.794;2022-08-25T08:48:23;101199.06;;;25.32;100.00
8627;BME280;4351;51.422;6.794;2022-08-25T08:51:07;101187.63;;;25.44;100.00
8627;BME280;4351;51.422;6.794;2022-08-25T08:53:44;101200.56;;;25.43;100.00
8627;BME280;4351;51.422;6.794;2022-08-25T08:56:15;101188.16;;;25.39;100.00
8627;BME280;4351;51.422;6.794;2022-08-25T08:58:49;101190.88;;;25.79;100.00
8627;BME280;4351;51.422;6.794;2022-08-25T09:01:25;101178.09;;;26.02;100.00
8627;BME280;4351;51.422;6.794;2022-08-25T09:03:58;101174.47;;;26.01;100.00
8627;BME280;4351;51.422;6.794;2022-08-25T09:06:31;101174.25;;;25.88;100.00
8627;BME280;4351;51.422;6.794;2022-08-25T09:09:05;101164.84;;;26.51;100.00
8627;BME280;4351;51.422;6.794;2022-08-25T09:11:50;101166.91;;;26.34;100.00
8627;BME280;4351;51.422;6.794;2022-08-25T09:14:37;101162.50;;;26.24;100.00
8627;BME280;4351;51.422;6.794;2022-08-25T09:17:14;101169.75;;;26.25;100.00
8627;BME280;4351;51.422;6.794;2022-08-25T09:20:06;101166.28;;;26.47;100.00
8627;BME280;4351;51.422;6.794;2022-08-25T09:22:51;101162.63;;;26.31;100.00
8627;BME280;4351;51.422;6.794;2022-08-25T09:25:31;101165.47;;;26.77;100.00
8627;BME280;4351;51.422;6.794;2022-08-25T09:28:20;101170.66;;;27.02;100.00
8627;BME280;4351;51.422;6.794;2022-08-25T09:30:52;101160.91;;;27.06;100.00
8627;BME280;4351;51.422;6.794;2022-08-25T09:33:24;101158.38;;;26.89;100.00
8627;BME280;4351;51.422;6.794;2022-08-25T09:35:54;101160.25;;;27.04;100.00
8627;BME280;4351;51.422;6.794;2022-08-25T09:38:24;101161.94;;;27.35;100.00
8627;BME280;4351;51.422;6.794;2022-08-25T09:40:55;101159.97;;;27.51;100.00
8627;BME280;4351;51.422;6.794;2022-08-25T09:43:31;101153.88;;;27.40;100.00
8627;BME280;4351;51.422;6.794;2022-08-25T09:46:01;101148.31;;;27.55;100.00
8627;BME280;4351;51.422;6.794;2022-08-25T09:48:31;101154.38;;;27.66;100.00
8627;BME280;4351;51.422;6.794;2022-08-25T09:51:15;101149.13;;;27.34;100.00
8627;BME280;4351;51.422;6.794;2022-08-25T09:53:47;101140.03;;;27.62;100.00
8627;BME280;4351;51.422;6.794;2022-08-25T09:56:21;101142.31;;;27.96;100.00
8627;BME280;4351;51.422;6.794;2022-08-25T09:58:52;101133.19;;;28.02;100.00
8627;BME280;4351;51.422;6.794;2022-08-25T10:01:26;101135.06;;;27.73;100.00
8627;BME280;4351;51.422;6.794;2022-08-25T10:04:02;101129.16;;;27.39;100.00
8627;BME280;4351;51.422;6.794;2022-08-25T10:06:35;101123.25;;;27.64;100.00
8627;BME280;4351;51.422;6.794;2022-08-25T10:09:22;101131.66;;;28.28;100.00
8627;BME280;4351;51.422;6.794;2022-08-25T10:11:54;101124.09;;;27.86;100.00
8627;BME280;4351;51.422;6.794;2022-08-25T10:14:27;101127.28;;;27.83;100.00
8627;BME280;4351;51.422;6.794;2022-08-25T10:17:12;101120.44;;;28.08;100.00
8627;BME280;4351;51.422;6.794;2022-08-25T10:19:41;101119.03;;;27.90;100.00
8627;BME280;4351;51.422;6.794;2022-08-25T10:22:19;101118.03;;;27.76;100.00
8627;BME280;4351;51.422;6.794;2022-08-25T10:24:48;101117.13;;;27.69;100.00
8627;BME280;4351;51.422;6.794;2022-08-25T10:27:24;101110.28;;;27.71;100.00
8627;BME280;4351;51.422;6.794;2022-08-25T10:30:07;101104.09;;;27.91;100.00
8627;BME280;4351;51.422;6.794;2022-08-25T10:33:01;101112.50;;;28.62;100.00
8627;BME280;4351;51.422;6.794;2022-08-25T10:35:46;101109.34;;;28.37;100.00
8627;BME280;4351;51.422;6.794;2022-08-25T10:38:30;101100.84;;;28.09;100.00
8627;BME280;4351;51.422;6.794;2022-08-25T10:41:15;101089.19;;;27.92;100.00
8627;BME280;4351;51.422;6.794;2022-08-25T10:43:52;101087.69;;;27.89;100.00
8627;BME280;4351;51.422;6.794;2022-08-25T10:46:35;101091.91;;;27.85;100.00
8627;BME280;4351;51.422;6.794;2022-08-25T10:49:11;101072.72;;;27.62;100.00
8627;BME280;4351;51.422;6.794;2022-08-25T10:51:49;101078.34;;;27.69;100.00
8627;BME280;4351;51.422;6.794;2022-08-25T10:54:35;101068.19;;;28.05;100.00
8627;BME280;4351;51.422;6.794;2022-08-25T10:57:16;101071.31;;;28.30;100.00
8627;BME280;4351;51.422;6.794;2022-08-25T11:00:00;101059.00;;;28.04;100.00
8627;BME280;4351;51.422;6.794;2022-08-25T11:05:39;101066.53;;;28.46;100.00
8627;BME280;4351;51.422;6.794;2022-08-25T11:08:15;101069.06;;;28.97;100.00
8627;BME280;4351;51.422;6.794;2022-08-25T11:10:46;101061.94;;;28.67;100.00
8627;BME280;4351;51.422;6.794;2022-08-25T11:13:22;101066.41;;;29.24;100.00
8627;BME280;4351;51.422;6.794;2022-08-25T11:16:02;101062.81;;;28.81;100.00
8627;BME280;4351;51.422;6.794;2022-08-25T11:18:50;101061.63;;;28.48;100.00
8627;BME280;4351;51.422;6.794;2022-08-25T11:21:25;101052.56;;;28.75;100.00
8627;BME280;4351;51.422;6.794;2022-08-25T11:24:06;101048.69;;;28.62;100.00
8627;BME280;4351;51.422;6.794;2022-08-25T11:26:50;101051.28;;;28.77;100.00
8627;BME280;4351;51.422;6.794;2022-08-25T11:29:23;101053.44;;;28.82;100.00
8627;BME280;4351;51.422;6.794;2022-08-25T11:31:59;101047.03;;;28.81;100.00
8627;BME280;4351;51.422;6.794;2022-08-25T11:34:31;101045.75;;;28.77;100.00
8627;BME280;4351;51.422;6.794;2022-08-25T11:37:19;101040.44;;;28.96;100.00
8627;BME280;4351;51.422;6.794;2022-08-25T11:40:13;101040.28;;;29.04;100.00
8627;BME280;4351;51.422;6.794;2022-08-25T11:43:00;101048.00;;;29.23;100.00
8627;BME280;4351;51.422;6.794;2022-08-25T11:45:48;101029.66;;;29.15;100.00
8627;BME280;4351;51.422;6.794;2022-08-25T11:48:35;101034.59;;;29.33;100.00
8627;BME280;4351;51.422;6.794;2022-08-25T11:51:09;101033.09;;;29.71;100.00
8627;BME280;4351;51.422;6.794;2022-08-25T11:54:09;101026.25;;;29.47;98.05
8627;BME280;4351;51.422;6.794;2022-08-25T11:56:55;101025.97;;;30.16;91.92
8627;BME280;4351;51.422;6.794;2022-08-25T12:00:00;101028.31;;;30.20;91.87
8627;BME280;4351;51.422;6.794;2022-08-25T12:02:35;101025.28;;;30.41;91.12
8627;BME280;4351;51.422;6.794;2022-08-25T12:08:05;101016.31;;;30.19;92.08
8627;BME280;4351;51.422;6.794;2022-08-25T12:11:01;101022.22;;;30.50;94.18
8627;BME280;4351;51.422;6.794;2022-08-25T12:13:43;101016.94;;;30.28;85.88
8627;BME280;4351;51.422;6.794;2022-08-25T12:16:39;101014.88;;;30.69;83.65
8627;BME280;4351;51.422;6.794;2022-08-25T12:19:28;101017.81;;;30.81;83.89
8627;BME280;4351;51.422;6.794;2022-08-25T12:25:19;101000.72;;;30.25;93.51
8627;BME280;4351;51.422;6.794;2022-08-25T12:28:01;100998.56;;;30.27;94.29
8627;BME280;4351;51.422;6.794;2022-08-25T12:30:41;100991.75;;;30.69;92.27
8627;BME280;4351;51.422;6.794;2022-08-25T12:33:24;100988.19;;;30.94;87.51
8627;BME280;4351;51.422;6.794;2022-08-25T12:36:04;100994.16;;;31.04;84.28
8627;BME280;4351;51.422;6.794;2022-08-25T12:38:45;100993.03;;;30.73;85.01
8627;BME280;4351;51.422;6.794;2022-08-25T12:41:21;100987.56;;;30.92;84.97
8627;BME280;4351;51.422;6.794;2022-08-25T12:43:53;100987.63;;;31.43;83.08
8627;BME280;4351;51.422;6.794;2022-08-25T12:46:38;100984.06;;;31.03;80.83
8627;BME280;4351;51.422;6.794;2022-08-25T12:49:29;100979.13;;;31.05;81.97
8627;BME280;4351;51.422;6.794;2022-08-25T12:52:06;100984.06;;;31.80;76.96
8627;BME280;4351;51.422;6.794;2022-08-25T12:54:46;100973.56;;;31.31;78.41
8627;BME280;4351;51.422;6.794;2022-08-25T12:57:31;100978.69;;;31.08;78.22
8627;BME280;4351;51.422;6.794;2022-08-25T13:00:13;100971.00;;;31.29;80.59
8627;BME280;4351;51.422;6.794;2022-08-25T13:05:54;100975.16;;;31.46;80.92
8627;BME280;4351;51.422;6.794;2022-08-25T13:08:45;100975.47;;;31.82;76.82
8627;BME280;4351;51.422;6.794;2022-08-25T13:11:35;100969.03;;;32.07;75.40
8627;BME280;4351;51.422;6.794;2022-08-25T13:14:18;100960.16;;;31.91;71.83
8627;BME280;4351;51.422;6.794;2022-08-25T13:16:53;100949.31;;;31.83;70.04
8627;BME280;4351;51.422;6.794;2022-08-25T13:19:27;100959.09;;;31.92;68.64
8627;BME280;4351;51.422;6.794;2022-08-25T13:22:03;100956.63;;;31.58;70.42
8627;BME280;4351;51.422;6.794;2022-08-25T13:24:43;100951.94;;;31.77;67.41
8627;BME280;4351;51.422;6.794;2022-08-25T13:27:20;100948.09;;;31.53;68.81
8627;BME280;4351;51.422;6.794;2022-08-25T13:29:55;100941.47;;;31.54;70.73
8627;BME280;4351;51.422;6.794;2022-08-25T13:32:28;100936.69;;;31.61;72.86
8627;BME280;4351;51.422;6.794;2022-08-25T13:35:14;100936.28;;;31.58;72.41
8627;BME280;4351;51.422;6.794;2022-08-25T13:37:46;100942.56;;;31.90;68.83
8627;BME280;4351;51.422;6.794;2022-08-25T13:40:23;100933.38;;;31.90;67.51
8627;BME280;4351;51.422;6.794;2022-08-25T13:42:57;100936.28;;;31.58;67.96
8627;BME280;4351;51.422;6.794;2022-08-25T13:45:32;100930.09;;;31.93;69.14
8627;BME280;4351;51.422;6.794;2022-08-25T13:48:07;100937.66;;;32.11;66.98
8627;BME280;4351;51.422;6.794;2022-08-25T13:50:49;100932.44;;;31.96;66.59